sensor_id;sensor_type;location;lat;lon;timestamp;P1;durP1;ratioP1;P2;durP2;ratioP2
62687;SDS011;48752;51.056;17.056;2023-07-13T00:02:22;11.48;;;6.65;;
62687;SDS011;48752;51.056;17.056;2023-07-13T00:05:00;12.05;;;7.97;;
62687;SDS011;48752;51.056;17.056;2023-07-13T00:07:25;11.88;;;7.50;;
62687;SDS011;48752;51.056;17.056;2023-07-13T00:09:51;12.85;;;7.15;;
62687;SDS011;48752;51.056;17.056;2023-07-13T00:12:27;9.43;;;6.38;;
62687;SDS011;48752;51.056;17.056;2023-07-13T00:14:57;11.90;;;6.30;;
62687;SDS011;48752;51.056;17.056;2023-07-13T00:17:25;9.63;;;5.88;;
62687;SDS011;48752;51.056;17.056;2023-07-13T00:19:53;11.82;;;6.57;;
62687;SDS011;48752;51.056;17.056;2023-07-13T00:22:39;11.40;;;6.50;;
62687;SDS011;48752;51.056;17.056;2023-07-13T00:25:12;10.45;;;6.25;;
62687;SDS011;48752;51.056;17.056;2023-07-13T00:27:38;11.43;;;6.22;;
62687;SDS011;48752;51.056;17.056;2023-07-13T00:30:03;12.00;;;6.57;;
62687;SDS011;48752;51.056;17.056;2023-07-13T00:32:30;14.45;;;6.60;;
62687;SDS011;48752;51.056;17.056;2023-07-13T00:35:02;9.30;;;6.60;;
62687;SDS011;48752;51.056;17.056;2023-07-13T00:37:30;9.15;;;6.47;;
62687;SDS011;48752;51.056;17.056;2023-07-13T00:39:56;12.13;;;6.65;;
62687;SDS011;48752;51.056;17.056;2023-07-13T00:42:22;15.23;;;7.78;;
62687;SDS011;48752;51.056;17.056;2023-07-13T00:47:40;10.60;;;7.03;;
62687;SDS011;48752;51.056;17.056;2023-07-13T00:50:06;12.23;;;7.43;;
62687;SDS011;48752;51.056;17.056;2023-07-13T00:52:33;13.25;;;7.53;;
62687;SDS011;48752;51.056;17.056;2023-07-13T00:55:00;12.20;;;7.47;;
62687;SDS011;48752;51.056;17.056;2023-07-13T00:57:26;15.35;;;7.80;;
62687;SDS011;48752;51.056;17.056;2023-07-13T00:59:54;15.50;;;7.80;;
62687;SDS011;48752;51.056;17.056;2023-07-13T01:02:39;11.85;;;7.47;;
62687;SDS011;48752;51.056;17.056;2023-07-13T01:05:14;14.48;;;7.55;;
62687;SDS011;48752;51.056;17.056;2023-07-13T01:07:41;19.27;;;7.90;;
62687;SDS011;48752;51.056;17.056;2023-07-13T01:10:09;12.65;;;7.82;;
62687;SDS011;48752;51.056;17.056;2023-07-13T01:12:35;12.57;;;8.20;;
62687;SDS011;48752;51.056;17.056;2023-07-13T01:15:01;17.27;;;7.55;;
62687;SDS011;48752;51.056;17.056;2023-07-13T01:17:29;13.25;;;8.32;;
62687;SDS011;48752;51.056;17.056;2023-07-13T01:19:55;16.80;;;8.35;;
62687;SDS011;48752;51.056;17.056;2023-07-13T01:22:20;11.65;;;8.45;;
62687;SDS011;48752;51.056;17.056;2023-07-13T01:27:24;11.55;;;8.25;;
62687;SDS011;48752;51.056;17.056;2023-07-13T01:29:51;16.60;;;9.35;;
62687;SDS011;48752;51.056;17.056;2023-07-13T01:32:21;14.80;;;8.95;;
62687;SDS011;48752;51.056;17.056;2023-07-13T01:34:51;10.98;;;8.55;;
62687;SDS011;48752;51.056;17.056;2023-07-13T01:37:19;22.10;;;9.25;;
62687;SDS011;48752;51.056;17.056;2023-07-13T01:39:46;16.40;;;9.23;;
62687;SDS011;48752;51.056;17.056;2023-07-13T01:42:19;18.67;;;9.65;;
62687;SDS011;48752;51.056;17.056;2023-07-13T01:44:44;16.20;;;9.63;;
62687;SDS011;48752;51.056;17.056;2023-07-13T01:47:10;15.98;;;8.88;;
62687;SDS011;48752;51.056;17.056;2023-07-13T01:49:35;18.27;;;9.05;;
62687;SDS011;48752;51.056;17.056;2023-07-13T01:52:02;15.20;;;9.10;;
62687;SDS011;48752;51.056;17.056;2023-07-13T01:54:30;22.15;;;9.93;;
62687;SDS011;48752;51.056;17.056;2023-07-13T01:56:55;14.95;;;9.43;;
62687;SDS011;48752;51.056;17.056;2023-07-13T01:59:21;16.95;;;10.10;;
62687;SDS011;48752;51.056;17.056;2023-07-13T02:01:46;19.30;;;9.77;;
62687;SDS011;48752;51.056;17.056;2023-07-13T02:04:11;14.05;;;9.63;;
62687;SDS011;48752;51.056;17.056;2023-07-13T02:06:40;12.82;;;8.82;;
62687;SDS011;48752;51.056;17.056;2023-07-13T02:09:11;18.67;;;9.73;;
62687;SDS011;48752;51.056;17.056;2023-07-13T02:11:40;17.08;;;8.82;;
62687;SDS011;48752;51.056;17.056;2023-07-13T02:14:05;10.65;;;8.32;;
62687;SDS011;48752;51.056;17.056;2023-07-13T02:16:32;13.88;;;10.00;;
62687;SDS011;48752;51.056;17.056;2023-07-13T02:18:57;19.77;;;9.75;;
62687;SDS011;48752;51.056;17.056;2023-07-13T02:21:32;18.77;;;10.23;;
62687;SDS011;48752;51.056;17.056;2023-07-13T02:23:58;17.85;;;10.68;;
62687;SDS011;48752;51.056;17.056;2023-07-13T02:26:25;15.77;;;10.15;;
62687;SDS011;48752;51.056;17.056;2023-07-13T02:28:50;15.18;;;9.65;;
62687;SDS011;48752;51.056;17.056;2023-07-13T02:31:16;22.17;;;9.43;;
62687;SDS011;48752;51.056;17.056;2023-07-13T02:33:42;11.88;;;9.30;;
62687;SDS011;48752;51.056;17.056;2023-07-13T02:36:09;15.57;;;10.43;;
62687;SDS011;48752;51.056;17.056;2023-07-13T02:38:35;16.00;;;10.05;;
62687;SDS011;48752;51.056;17.056;2023-07-13T02:41:02;17.85;;;10.18;;
62687;SDS011;48752;51.056;17.056;2023-07-13T02:43:29;18.13;;;10.27;;
62687;SDS011;48752;51.056;17.056;2023-07-13T02:45:55;14.68;;;9.85;;
62687;SDS011;48752;51.056;17.056;2023-07-13T02:48:22;15.68;;;9.35;;
62687;SDS011;48752;51.056;17.056;2023-07-13T02:50:48;17.33;;;9.30;;
62687;SDS011;48752;51.056;17.056;2023-07-13T02:53:15;14.25;;;9.18;;
62687;SDS011;48752;51.056;17.056;2023-07-13T02:55:41;15.32;;;8.25;;
62687;SDS011;48752;51.056;17.056;2023-07-13T02:58:12;18.08;;;10.23;;
62687;SDS011;48752;51.056;17.056;2023-07-13T03:00:42;16.40;;;9.43;;
62687;SDS011;48752;51.056;17.056;2023-07-13T03:03:08;19.98;;;8.25;;
62687;SDS011;48752;51.056;17.056;2023-07-13T03:05:34;12.85;;;7.70;;
62687;SDS011;48752;51.056;17.056;2023-07-13T03:08:00;9.85;;;6.68;;
62687;SDS011;48752;51.056;17.056;2023-07-13T03:10:27;11.70;;;6.38;;
62687;SDS011;48752;51.056;17.056;2023-07-13T03:12:53;10.25;;;6.38;;
62687;SDS011;48752;51.056;17.056;2023-07-13T03:15:18;10.80;;;6.30;;
62687;SDS011;48752;51.056;17.056;2023-07-13T03:17:44;11.73;;;6.20;;
62687;SDS011;48752;51.056;17.056;2023-07-13T03:20:18;7.72;;;5.22;;
62687;SDS011;48752;51.056;17.056;2023-07-13T03:22:49;10.75;;;5.63;;
62687;SDS011;48752;51.056;17.056;2023-07-13T03:25:19;9.50;;;5.95;;
62687;SDS011;48752;51.056;17.056;2023-07-13T03:27:46;10.40;;;5.80;;
62687;SDS011;48752;51.056;17.056;2023-07-13T03:30:11;9.18;;;5.38;;
62687;SDS011;48752;51.056;17.056;2023-07-13T03:32:38;10.43;;;4.60;;
62687;SDS011;48752;51.056;17.056;2023-07-13T03:35:06;7.97;;;5.30;;
62687;SDS011;48752;51.056;17.056;2023-07-13T03:37:32;6.03;;;4.75;;
62687;SDS011;48752;51.056;17.056;2023-07-13T03:39:58;7.50;;;4.90;;
62687;SDS011;48752;51.056;17.056;2023-07-13T03:42:23;9.73;;;5.05;;
62687;SDS011;48752;51.056;17.056;2023-07-13T03:44:50;6.30;;;4.53;;
62687;SDS011;48752;51.056;17.056;2023-07-13T03:47:19;18.02;;;5.30;;
62687;SDS011;48752;51.056;17.056;2023-07-13T03:49:45;8.80;;;4.47;;
62687;SDS011;48752;51.056;17.056;2023-07-13T03:52:11;8.52;;;4.95;;
62687;SDS011;48752;51.056;17.056;2023-07-13T03:54:36;6.50;;;4.60;;
62687;SDS011;48752;51.056;17.056;2023-07-13T03:57:02;6.82;;;4.75;;
62687;SDS011;48752;51.056;17.056;2023-07-13T03:59:28;5.65;;;4.80;;
62687;SDS011;48752;51.056;17.056;2023-07-13T04:01:53;8.27;;;5.82;;
62687;SDS011;48752;51.056;17.056;2023-07-13T04:04:20;11.30;;;5.80;;
62687;SDS011;48752;51.056;17.056;2023-07-13T04:06:46;10.13;;;5.13;;
62687;SDS011;48752;51.056;17.056;2023-07-13T04:09:12;8.07;;;5.30;;
62687;SDS011;48752;51.056;17.056;2023-07-13T04:11:37;6.78;;;5.30;;
62687;SDS011;48752;51.056;17.056;2023-07-13T04:14:03;7.35;;;5.28;;
62687;SDS011;48752;51.056;17.056;2023-07-13T04:16:30;7.28;;;5.55;;
62687;SDS011;48752;51.056;17.056;2023-07-13T04:18:57;11.80;;;5.53;;
62687;SDS011;48752;51.056;17.056;2023-07-13T04:21:29;8.57;;;5.10;;
62687;SDS011;48752;51.056;17.056;2023-07-13T04:23:56;9.07;;;5.88;;
62687;SDS011;48752;51.056;17.056;2023-07-13T04:26:24;11.13;;;6.85;;
62687;SDS011;48752;51.056;17.056;2023-07-13T04:28:50;14.75;;;5.18;;
62687;SDS011;48752;51.056;17.056;2023-07-13T04:31:16;10.77;;;5.03;;
62687;SDS011;48752;51.056;17.056;2023-07-13T04:33:43;16.02;;;5.22;;
62687;SDS011;48752;51.056;17.056;2023-07-13T04:36:10;18.45;;;6.10;;
62687;SDS011;48752;51.056;17.056;2023-07-13T04:38:36;18.98;;;5.30;;
62687;SDS011;48752;51.056;17.056;2023-07-13T04:41:07;11.85;;;5.07;;
62687;SDS011;48752;51.056;17.056;2023-07-13T04:43:41;18.42;;;4.75;;
62687;SDS011;48752;51.056;17.056;2023-07-13T04:46:09;10.73;;;5.07;;
62687;SDS011;48752;51.056;17.056;2023-07-13T04:48:36;15.82;;;4.60;;
62687;SDS011;48752;51.056;17.056;2023-07-13T04:51:02;7.65;;;4.32;;
62687;SDS011;48752;51.056;17.056;2023-07-13T04:53:28;7.05;;;5.10;;
62687;SDS011;48752;51.056;17.056;2023-07-13T04:55:56;9.50;;;4.90;;
62687;SDS011;48752;51.056;17.056;2023-07-13T04:58:23;9.27;;;5.07;;
62687;SDS011;48752;51.056;17.056;2023-07-13T05:00:51;8.90;;;4.93;;
62687;SDS011;48752;51.056;17.056;2023-07-13T05:03:18;10.80;;;5.05;;
62687;SDS011;48752;51.056;17.056;2023-07-13T05:05:53;8.88;;;4.85;;
62687;SDS011;48752;51.056;17.056;2023-07-13T05:08:20;8.77;;;5.05;;
62687;SDS011;48752;51.056;17.056;2023-07-13T05:10:46;9.55;;;5.10;;
62687;SDS011;48752;51.056;17.056;2023-07-13T05:13:12;7.28;;;4.97;;
62687;SDS011;48752;51.056;17.056;2023-07-13T05:15:40;9.75;;;4.85;;
62687;SDS011;48752;51.056;17.056;2023-07-13T05:18:05;7.70;;;4.88;;
62687;SDS011;48752;51.056;17.056;2023-07-13T05:20:32;13.75;;;5.68;;
62687;SDS011;48752;51.056;17.056;2023-07-13T05:22:59;6.90;;;4.80;;
62687;SDS011;48752;51.056;17.056;2023-07-13T05:25:25;9.35;;;6.15;;
62687;SDS011;48752;51.056;17.056;2023-07-13T05:27:51;8.93;;;4.47;;
62687;SDS011;48752;51.056;17.056;2023-07-13T05:30:18;9.07;;;5.78;;
62687;SDS011;48752;51.056;17.056;2023-07-13T05:32:44;7.05;;;5.20;;
62687;SDS011;48752;51.056;17.056;2023-07-13T05:35:11;10.43;;;5.72;;
62687;SDS011;48752;51.056;17.056;2023-07-13T05:37:37;7.10;;;5.43;;
62687;SDS011;48752;51.056;17.056;2023-07-13T05:40:03;7.80;;;5.00;;
62687;SDS011;48752;51.056;17.056;2023-07-13T05:42:29;6.05;;;5.45;;
62687;SDS011;48752;51.056;17.056;2023-07-13T05:44:58;7.78;;;5.55;;
62687;SDS011;48752;51.056;17.056;2023-07-13T05:47:23;7.32;;;4.93;;
62687;SDS011;48752;51.056;17.056;2023-07-13T05:49:49;7.25;;;4.82;;
62687;SDS011;48752;51.056;17.056;2023-07-13T05:52:16;6.10;;;5.47;;
62687;SDS011;48752;51.056;17.056;2023-07-13T05:54:42;9.18;;;5.68;;
62687;SDS011;48752;51.056;17.056;2023-07-13T05:57:10;9.15;;;5.53;;
62687;SDS011;48752;51.056;17.056;2023-07-13T05:59:35;7.43;;;5.03;;
62687;SDS011;48752;51.056;17.056;2023-07-13T06:02:09;9.05;;;6.25;;
62687;SDS011;48752;51.056;17.056;2023-07-13T06:04:35;8.98;;;5.80;;
62687;SDS011;48752;51.056;17.056;2023-07-13T06:07:01;8.70;;;4.72;;
62687;SDS011;48752;51.056;17.056;2023-07-13T06:09:28;8.23;;;5.28;;
62687;SDS011;48752;51.056;17.056;2023-07-13T06:11:53;7.65;;;5.40;;
62687;SDS011;48752;51.056;17.056;2023-07-13T06:14:20;5.82;;;4.80;;
62687;SDS011;48752;51.056;17.056;2023-07-13T06:16:47;6.15;;;5.15;;
62687;SDS011;48752;51.056;17.056;2023-07-13T06:19:14;4.57;;;4.07;;
62687;SDS011;48752;51.056;17.056;2023-07-13T06:21:48;3.95;;;3.50;;
62687;SDS011;48752;51.056;17.056;2023-07-13T06:24:20;4.85;;;3.13;;
62687;SDS011;48752;51.056;17.056;2023-07-13T06:26:45;3.00;;;2.63;;
62687;SDS011;48752;51.056;17.056;2023-07-13T06:29:16;3.53;;;2.75;;
62687;SDS011;48752;51.056;17.056;2023-07-13T06:31:42;3.45;;;2.30;;
62687;SDS011;48752;51.056;17.056;2023-07-13T06:36:55;3.75;;;2.50;;
62687;SDS011;48752;51.056;17.056;2023-07-13T06:39:41;14.60;;;2.70;;
62687;SDS011;48752;51.056;17.056;2023-07-13T06:42:16;6.70;;;2.72;;
62687;SDS011;48752;51.056;17.056;2023-07-13T06:44:55;4.88;;;2.90;;
62687;SDS011;48752;51.056;17.056;2023-07-13T06:47:20;4.00;;;2.42;;
62687;SDS011;48752;51.056;17.056;2023-07-13T06:49:47;4.07;;;2.75;;
62687;SDS011;48752;51.056;17.056;2023-07-13T06:52:12;5.60;;;2.72;;
62687;SDS011;48752;51.056;17.056;2023-07-13T06:54:38;7.63;;;3.40;;
62687;SDS011;48752;51.056;17.056;2023-07-13T06:57:05;5.10;;;3.28;;
62687;SDS011;48752;51.056;17.056;2023-07-13T06:59:30;5.22;;;3.08;;
62687;SDS011;48752;51.056;17.056;2023-07-13T07:01:56;3.15;;;2.85;;
62687;SDS011;48752;51.056;17.056;2023-07-13T07:04:22;4.45;;;3.28;;
62687;SDS011;48752;51.056;17.056;2023-07-13T07:06:55;6.38;;;3.60;;
62687;SDS011;48752;51.056;17.056;2023-07-13T07:09:21;6.78;;;4.15;;
62687;SDS011;48752;51.056;17.056;2023-07-13T07:11:52;7.72;;;4.18;;
62687;SDS011;48752;51.056;17.056;2023-07-13T07:14:18;5.18;;;4.25;;
62687;SDS011;48752;51.056;17.056;2023-07-13T07:16:44;11.75;;;4.78;;
62687;SDS011;48752;51.056;17.056;2023-07-13T07:19:10;8.73;;;4.45;;
62687;SDS011;48752;51.056;17.056;2023-07-13T07:21:35;7.03;;;5.18;;
62687;SDS011;48752;51.056;17.056;2023-07-13T07:24:01;7.05;;;4.78;;
62687;SDS011;48752;51.056;17.056;2023-07-13T07:26:28;7.03;;;5.38;;
62687;SDS011;48752;51.056;17.056;2023-07-13T07:28:54;9.05;;;5.30;;
62687;SDS011;48752;51.056;17.056;2023-07-13T07:31:19;15.35;;;5.07;;
62687;SDS011;48752;51.056;17.056;2023-07-13T07:33:45;9.95;;;5.13;;
62687;SDS011;48752;51.056;17.056;2023-07-13T07:36:14;7.50;;;5.72;;
62687;SDS011;48752;51.056;17.056;2023-07-13T07:38:42;9.10;;;5.97;;
62687;SDS011;48752;51.056;17.056;2023-07-13T07:41:08;8.15;;;5.57;;
62687;SDS011;48752;51.056;17.056;2023-07-13T07:43:35;11.35;;;6.25;;
62687;SDS011;48752;51.056;17.056;2023-07-13T07:46:14;11.15;;;6.18;;
62687;SDS011;48752;51.056;17.056;2023-07-13T07:48:42;10.38;;;6.70;;
62687;SDS011;48752;51.056;17.056;2023-07-13T07:51:09;14.05;;;7.10;;
62687;SDS011;48752;51.056;17.056;2023-07-13T07:53:35;10.45;;;7.18;;
62687;SDS011;48752;51.056;17.056;2023-07-13T07:56:00;16.88;;;7.55;;
62687;SDS011;48752;51.056;17.056;2023-07-13T07:58:27;10.73;;;7.28;;
62687;SDS011;48752;51.056;17.056;2023-07-13T08:00:53;12.50;;;7.43;;
62687;SDS011;48752;51.056;17.056;2023-07-13T08:03:19;8.70;;;7.15;;
62687;SDS011;48752;51.056;17.056;2023-07-13T08:05:45;9.45;;;8.40;;
62687;SDS011;48752;51.056;17.056;2023-07-13T08:08:13;7.78;;;6.97;;
62687;SDS011;48752;51.056;17.056;2023-07-13T08:10:39;11.25;;;6.30;;
62687;SDS011;48752;51.056;17.056;2023-07-13T08:13:06;8.43;;;5.35;;
62687;SDS011;48752;51.056;17.056;2023-07-13T08:15:33;4.97;;;4.47;;
62687;SDS011;48752;51.056;17.056;2023-07-13T08:17:59;5.97;;;3.85;;
62687;SDS011;48752;51.056;17.056;2023-07-13T08:20:26;6.93;;;4.25;;
62687;SDS011;48752;51.056;17.056;2023-07-13T08:22:51;6.43;;;3.80;;
62687;SDS011;48752;51.056;17.056;2023-07-13T08:25:20;6.70;;;3.83;;
62687;SDS011;48752;51.056;17.056;2023-07-13T08:27:48;11.65;;;4.55;;
62687;SDS011;48752;51.056;17.056;2023-07-13T08:30:13;11.75;;;5.03;;
62687;SDS011;48752;51.056;17.056;2023-07-13T08:32:39;4.40;;;3.42;;
62687;SDS011;48752;51.056;17.056;2023-07-13T08:35:05;4.80;;;3.35;;
62687;SDS011;48752;51.056;17.056;2023-07-13T08:37:32;5.13;;;3.55;;
62687;SDS011;48752;51.056;17.056;2023-07-13T08:40:00;17.77;;;4.65;;
62687;SDS011;48752;51.056;17.056;2023-07-13T08:42:33;13.80;;;5.15;;
62687;SDS011;48752;51.056;17.056;2023-07-13T08:50:30;7.63;;;4.72;;
62687;SDS011;48752;51.056;17.056;2023-07-13T08:53:00;7.15;;;4.25;;
62687;SDS011;48752;51.056;17.056;2023-07-13T08:55:31;8.30;;;4.78;;
62687;SDS011;48752;51.056;17.056;2023-07-13T08:58:15;8.88;;;4.50;;
62687;SDS011;48752;51.056;17.056;2023-07-13T09:03:34;8.68;;;4.13;;
62687;SDS011;48752;51.056;17.056;2023-07-13T09:06:04;8.93;;;4.93;;
62687;SDS011;48752;51.056;17.056;2023-07-13T09:09:01;7.95;;;4.05;;
62687;SDS011;48752;51.056;17.056;2023-07-13T09:17:14;7.53;;;3.85;;
62687;SDS011;48752;51.056;17.056;2023-07-13T09:19:47;4.35;;;3.60;;
62687;SDS011;48752;51.056;17.056;2023-07-13T09:22:17;6.32;;;4.13;;
62687;SDS011;48752;51.056;17.056;2023-07-13T09:24:54;4.80;;;3.60;;
62687;SDS011;48752;51.056;17.056;2023-07-13T09:27:26;4.63;;;3.65;;
62687;SDS011;48752;51.056;17.056;2023-07-13T09:30:03;7.97;;;3.00;;
62687;SDS011;48752;51.056;17.056;2023-07-13T09:32:50;5.18;;;3.45;;
62687;SDS011;48752;51.056;17.056;2023-07-13T09:35:19;5.43;;;3.90;;
62687;SDS011;48752;51.056;17.056;2023-07-13T09:37:49;6.60;;;3.50;;
62687;SDS011;48752;51.056;17.056;2023-07-13T09:40:20;4.75;;;3.20;;
62687;SDS011;48752;51.056;17.056;2023-07-13T09:42:53;5.18;;;3.50;;
62687;SDS011;48752;51.056;17.056;2023-07-13T09:45:34;8.15;;;4.00;;
62687;SDS011;48752;51.056;17.056;2023-07-13T09:48:06;5.35;;;3.22;;
62687;SDS011;48752;51.056;17.056;2023-07-13T09:50:37;5.18;;;3.13;;
62687;SDS011;48752;51.056;17.056;2023-07-13T09:53:04;4.22;;;2.78;;
62687;SDS011;48752;51.056;17.056;2023-07-13T09:58:17;8.73;;;3.10;;
62687;SDS011;48752;51.056;17.056;2023-07-13T10:03:32;6.22;;;3.00;;
62687;SDS011;48752;51.056;17.056;2023-07-13T10:06:17;6.00;;;2.90;;
62687;SDS011;48752;51.056;17.056;2023-07-13T10:08:49;6.85;;;2.75;;
62687;SDS011;48752;51.056;17.056;2023-07-13T10:11:18;7.03;;;2.70;;
62687;SDS011;48752;51.056;17.056;2023-07-13T10:13:46;6.82;;;2.55;;
62687;SDS011;48752;51.056;17.056;2023-07-13T10:16:24;8.95;;;2.90;;
62687;SDS011;48752;51.056;17.056;2023-07-13T10:18:53;4.50;;;2.53;;
62687;SDS011;48752;51.056;17.056;2023-07-13T10:21:27;4.80;;;2.53;;
62687;SDS011;48752;51.056;17.056;2023-07-13T10:23:58;3.67;;;2.78;;
62687;SDS011;48752;51.056;17.056;2023-07-13T10:26:32;8.73;;;2.72;;
62687;SDS011;48752;51.056;17.056;2023-07-13T10:29:03;14.98;;;2.85;;
62687;SDS011;48752;51.056;17.056;2023-07-13T10:31:32;7.13;;;2.85;;
62687;SDS011;48752;51.056;17.056;2023-07-13T10:34:09;17.05;;;2.95;;
62687;SDS011;48752;51.056;17.056;2023-07-13T10:36:46;5.65;;;2.35;;
62687;SDS011;48752;51.056;17.056;2023-07-13T10:39:23;3.70;;;2.08;;
62687;SDS011;48752;51.056;17.056;2023-07-13T10:41:52;3.85;;;2.38;;
62687;SDS011;48752;51.056;17.056;2023-07-13T10:44:30;4.82;;;2.30;;
62687;SDS011;48752;51.056;17.056;2023-07-13T10:47:15;3.15;;;1.83;;
62687;SDS011;48752;51.056;17.056;2023-07-13T10:49:43;3.60;;;2.33;;
62687;SDS011;48752;51.056;17.056;2023-07-13T10:55:30;22.75;;;4.47;;
62687;SDS011;48752;51.056;17.056;2023-07-13T11:01:08;3.97;;;1.95;;
62687;SDS011;48752;51.056;17.056;2023-07-13T11:06:33;2.00;;;1.65;;
62687;SDS011;48752;51.056;17.056;2023-07-13T11:17:33;5.13;;;2.22;;
62687;SDS011;48752;51.056;17.056;2023-07-13T11:22:47;3.10;;;1.60;;
62687;SDS011;48752;51.056;17.056;2023-07-13T11:25:21;2.80;;;1.90;;
62687;SDS011;48752;51.056;17.056;2023-07-13T11:30:47;2.92;;;1.70;;
62687;SDS011;48752;51.056;17.056;2023-07-13T11:33:22;5.72;;;2.40;;
62687;SDS011;48752;51.056;17.056;2023-07-13T11:38:44;4.38;;;1.67;;
62687;SDS011;48752;51.056;17.056;2023-07-13T11:41:28;7.47;;;2.65;;
62687;SDS011;48752;51.056;17.056;2023-07-13T11:44:33;3.65;;;2.03;;
62687;SDS011;48752;51.056;17.056;2023-07-13T11:46:56;3.47;;;1.90;;
62687;SDS011;48752;51.056;17.056;2023-07-13T11:49:25;8.63;;;2.42;;
62687;SDS011;48752;51.056;17.056;2023-07-13T11:51:55;2.75;;;1.98;;
62687;SDS011;48752;51.056;17.056;2023-07-13T11:54:29;5.20;;;2.22;;
62687;SDS011;48752;51.056;17.056;2023-07-13T11:56:58;7.38;;;2.42;;
62687;SDS011;48752;51.056;17.056;2023-07-13T11:59:26;5.25;;;2.80;;
62687;SDS011;48752;51.056;17.056;2023-07-13T12:01:52;10.20;;;3.05;;
62687;SDS011;48752;51.056;17.056;2023-07-13T12:04:24;4.28;;;2.00;;
62687;SDS011;48752;51.056;17.056;2023-07-13T12:06:56;5.22;;;1.58;;
62687;SDS011;48752;51.056;17.056;2023-07-13T12:09:42;3.70;;;1.80;;
62687;SDS011;48752;51.056;17.056;2023-07-13T12:12:12;4.88;;;2.17;;
62687;SDS011;48752;51.056;17.056;2023-07-13T12:14:39;4.85;;;1.90;;
62687;SDS011;48752;51.056;17.056;2023-07-13T12:17:11;4.50;;;1.90;;
62687;SDS011;48752;51.056;17.056;2023-07-13T12:19:43;3.20;;;1.95;;
62687;SDS011;48752;51.056;17.056;2023-07-13T12:22:12;3.78;;;1.70;;
62687;SDS011;48752;51.056;17.056;2023-07-13T12:24:39;2.97;;;2.00;;
62687;SDS011;48752;51.056;17.056;2023-07-13T12:27:06;4.50;;;2.22;;
62687;SDS011;48752;51.056;17.056;2023-07-13T12:29:48;4.20;;;2.22;;
62687;SDS011;48752;51.056;17.056;2023-07-13T12:32:17;7.20;;;2.63;;
62687;SDS011;48752;51.056;17.056;2023-07-13T12:35:12;7.75;;;2.35;;
62687;SDS011;48752;51.056;17.056;2023-07-13T12:37:43;2.83;;;2.05;;
62687;SDS011;48752;51.056;17.056;2023-07-13T12:40:19;5.38;;;2.72;;
62687;SDS011;48752;51.056;17.056;2023-07-13T12:42:49;3.92;;;2.00;;
62687;SDS011;48752;51.056;17.056;2023-07-13T12:47:55;4.55;;;1.35;;
62687;SDS011;48752;51.056;17.056;2023-07-13T12:50:40;2.40;;;1.30;;
62687;SDS011;48752;51.056;17.056;2023-07-13T12:53:10;2.60;;;1.70;;
62687;SDS011;48752;51.056;17.056;2023-07-13T12:55:42;2.58;;;1.60;;
62687;SDS011;48752;51.056;17.056;2023-07-13T12:58:13;2.67;;;1.63;;
62687;SDS011;48752;51.056;17.056;2023-07-13T13:01:02;3.42;;;1.30;;
62687;SDS011;48752;51.056;17.056;2023-07-13T13:03:39;4.03;;;2.17;;
62687;SDS011;48752;51.056;17.056;2023-07-13T13:08:55;4.30;;;1.92;;
62687;SDS011;48752;51.056;17.056;2023-07-13T13:11:23;3.47;;;1.70;;
62687;SDS011;48752;51.056;17.056;2023-07-13T13:13:51;2.92;;;1.65;;
62687;SDS011;48752;51.056;17.056;2023-07-13T13:18:51;1.98;;;1.58;;
62687;SDS011;48752;51.056;17.056;2023-07-13T13:21:18;4.20;;;1.80;;
62687;SDS011;48752;51.056;17.056;2023-07-13T13:23:44;10.30;;;2.10;;
62687;SDS011;48752;51.056;17.056;2023-07-13T13:26:11;5.50;;;2.00;;
62687;SDS011;48752;51.056;17.056;2023-07-13T13:28:38;1.92;;;1.73;;
62687;SDS011;48752;51.056;17.056;2023-07-13T13:31:04;1.83;;;1.52;;
62687;SDS011;48752;51.056;17.056;2023-07-13T13:33:29;4.70;;;1.95;;
62687;SDS011;48752;51.056;17.056;2023-07-13T13:35:56;4.07;;;1.60;;
62687;SDS011;48752;51.056;17.056;2023-07-13T13:38:26;4.25;;;1.80;;
62687;SDS011;48752;51.056;17.056;2023-07-13T13:40:53;3.45;;;1.65;;
62687;SDS011;48752;51.056;17.056;2023-07-13T13:43:25;3.75;;;1.67;;
62687;SDS011;48752;51.056;17.056;2023-07-13T13:45:56;4.47;;;1.85;;
62687;SDS011;48752;51.056;17.056;2023-07-13T13:48:29;4.88;;;1.92;;
62687;SDS011;48752;51.056;17.056;2023-07-13T13:50:57;9.18;;;1.50;;
62687;SDS011;48752;51.056;17.056;2023-07-13T13:53:23;3.45;;;1.63;;
62687;SDS011;48752;51.056;17.056;2023-07-13T13:55:50;2.55;;;1.70;;
62687;SDS011;48752;51.056;17.056;2023-07-13T13:58:24;2.17;;;1.38;;
62687;SDS011;48752;51.056;17.056;2023-07-13T14:00:49;2.15;;;1.60;;
62687;SDS011;48752;51.056;17.056;2023-07-13T14:03:19;2.33;;;1.63;;
62687;SDS011;48752;51.056;17.056;2023-07-13T14:06:04;7.80;;;1.77;;
62687;SDS011;48752;51.056;17.056;2023-07-13T14:08:30;2.65;;;1.60;;
62687;SDS011;48752;51.056;17.056;2023-07-13T14:10:57;4.15;;;2.05;;
62687;SDS011;48752;51.056;17.056;2023-07-13T14:13:28;4.00;;;1.93;;
62687;SDS011;48752;51.056;17.056;2023-07-13T14:16:11;5.10;;;1.83;;
62687;SDS011;48752;51.056;17.056;2023-07-13T14:18:38;2.47;;;1.40;;
62687;SDS011;48752;51.056;17.056;2023-07-13T14:23:56;3.70;;;2.10;;
62687;SDS011;48752;51.056;17.056;2023-07-13T14:26:26;4.38;;;2.15;;
62687;SDS011;48752;51.056;17.056;2023-07-13T14:28:56;3.95;;;2.00;;
62687;SDS011;48752;51.056;17.056;2023-07-13T14:33:49;2.50;;;1.52;;
62687;SDS011;48752;51.056;17.056;2023-07-13T14:36:30;5.40;;;1.90;;
62687;SDS011;48752;51.056;17.056;2023-07-13T14:38:57;5.03;;;1.05;;
62687;SDS011;48752;51.056;17.056;2023-07-13T14:41:24;1.70;;;1.30;;
62687;SDS011;48752;51.056;17.056;2023-07-13T14:43:51;2.17;;;1.50;;
62687;SDS011;48752;51.056;17.056;2023-07-13T14:46:38;2.67;;;1.15;;
62687;SDS011;48752;51.056;17.056;2023-07-13T14:49:05;6.88;;;1.88;;
62687;SDS011;48752;51.056;17.056;2023-07-13T14:51:31;9.18;;;1.65;;
62687;SDS011;48752;51.056;17.056;2023-07-13T14:54:01;4.35;;;1.50;;
62687;SDS011;48752;51.056;17.056;2023-07-13T14:56:28;3.38;;;1.65;;
62687;SDS011;48752;51.056;17.056;2023-07-13T14:58:56;3.20;;;1.30;;
62687;SDS011;48752;51.056;17.056;2023-07-13T15:01:31;1.77;;;1.17;;
62687;SDS011;48752;51.056;17.056;2023-07-13T15:03:56;2.28;;;1.55;;
62687;SDS011;48752;51.056;17.056;2023-07-13T15:06:24;3.88;;;1.50;;
62687;SDS011;48752;51.056;17.056;2023-07-13T15:08:50;2.88;;;1.50;;
62687;SDS011;48752;51.056;17.056;2023-07-13T15:11:16;3.70;;;1.50;;
62687;SDS011;48752;51.056;17.056;2023-07-13T15:13:42;3.67;;;1.50;;
62687;SDS011;48752;51.056;17.056;2023-07-13T15:16:15;5.70;;;1.30;;
62687;SDS011;48752;51.056;17.056;2023-07-13T15:18:47;1.23;;;1.13;;
62687;SDS011;48752;51.056;17.056;2023-07-13T15:21:20;2.20;;;1.40;;
62687;SDS011;48752;51.056;17.056;2023-07-13T15:26:15;5.73;;;1.53;;
62687;SDS011;48752;51.056;17.056;2023-07-13T15:28:43;3.30;;;1.73;;
62687;SDS011;48752;51.056;17.056;2023-07-13T15:31:44;2.30;;;1.02;;
62687;SDS011;48752;51.056;17.056;2023-07-13T15:34:15;1.65;;;1.15;;
62687;SDS011;48752;51.056;17.056;2023-07-13T15:36:42;3.33;;;1.30;;
62687;SDS011;48752;51.056;17.056;2023-07-13T15:39:13;5.47;;;1.42;;
62687;SDS011;48752;51.056;17.056;2023-07-13T15:41:43;1.45;;;1.00;;
62687;SDS011;48752;51.056;17.056;2023-07-13T15:46:55;2.70;;;1.30;;
62687;SDS011;48752;51.056;17.056;2023-07-13T15:49:22;4.60;;;1.30;;
62687;SDS011;48752;51.056;17.056;2023-07-13T15:51:48;3.78;;;1.38;;
62687;SDS011;48752;51.056;17.056;2023-07-13T15:54:15;3.28;;;1.25;;
62687;SDS011;48752;51.056;17.056;2023-07-13T15:56:41;2.83;;;1.27;;